Time;durP1;ratioP1;P1;durP2;ratioP2;P2;SDS_P1;SDS_P2;PMS_P1;PMS_P2;Temp;Humidity;BMP_temperature;BMP_pressure;BME280_temperature;BME280_humidity;BME280_pressure;Samples;Min_cycle;Max_cycle;Signal;HPM_P1;HPM_P2
2020/12/10 00:02:02;;;;;;;47.17;24.38;;;;;;;;;;5094530;28;20228;-65
2020/12/10 00:04:29;;;;;;;44.97;22.95;;;;;;;;;;5094552;28;20196;-66
2020/12/10 00:06:55;;;;;;;48.50;23.45;;;;;;;;;;5093808;28;20261;-65
2020/12/10 00:09:22;;;;;;;49.45;24.42;;;;;;;;;;5093873;28;20220;-65
2020/12/10 00:11:49;;;;;;;47.45;25.05;;;;;;;;;;5093561;28;20574;-67
2020/12/10 00:14:16;;;;;;;44.22;23.52;;;;;;;;;;5093537;28;20208;-66
2020/12/10 00:16:46;;;;;;;49.13;24.05;;;;;;;;;;5094148;28;20249;-66
2020/12/10 00:19:14;;;;;;;47.30;23.67;;;;;;;;;;5094575;28;20181;-65
2020/12/10 00:21:41;;;;;;;43.88;22.67;;;;;;;;;;5094863;28;20217;-65
2020/12/10 00:24:07;;;;;;;46.05;22.83;;;;;;;;;;5099224;28;20204;-66
2020/12/10 00:26:34;;;;;;;50.90;25.45;;;;;;;;;;5100371;28;20199;-64
2020/12/10 00:29:01;;;;;;;41.95;20.33;;;;;;;;;;5099293;28;20212;-65
2020/12/10 00:31:28;;;;;;;50.72;25.38;;;;;;;;;;5098623;28;20223;-65
2020/12/10 00:33:54;;;;;;;44.95;23.52;;;;;;;;;;5100399;28;20234;-66
2020/12/10 00:36:22;;;;;;;52.85;24.58;;;;;;;;;;5098150;28;20204;-65
2020/12/10 00:38:49;;;;;;;47.05;22.77;;;;;;;;;;5098018;28;20230;-65
2020/12/10 00:41:16;;;;;;;48.63;24.20;;;;;;;;;;5098240;28;20277;-65
2020/12/10 00:43:43;;;;;;;44.25;22.65;;;;;;;;;;5099415;28;20200;-65
2020/12/10 00:46:09;;;;;;;52.55;25.30;;;;;;;;;;5100475;28;20610;-65
2020/12/10 00:48:36;;;;;;;48.60;23.08;;;;;;;;;;5100946;28;20223;-66
2020/12/10 00:51:03;;;;;;;54.63;26.42;;;;;;;;;;5098772;28;20258;-65
2020/12/10 00:53:31;;;;;;;54.15;25.48;;;;;;;;;;5098490;28;20200;-66
2020/12/10 00:55:58;;;;;;;51.28;23.48;;;;;;;;;;5097708;28;20226;-65
2020/12/10 00:58:25;;;;;;;53.25;25.17;;;;;;;;;;5097725;28;20207;-65
2020/12/10 01:00:52;;;;;;;52.30;24.38;;;;;;;;;;5097386;28;20297;-65
2020/12/10 01:03:18;;;;;;;57.05;24.33;;;;;;;;;;5097300;28;20196;-66
2020/12/10 01:05:45;;;;;;;53.42;24.88;;;;;;;;;;5096970;28;20204;-65
2020/12/10 01:08:12;;;;;;;53.60;24.25;;;;;;;;;;5097104;28;20712;-65
2020/12/10 01:10:40;;;;;;;50.85;24.45;;;;;;;;;;5097960;28;20228;-65
2020/12/10 01:13:07;;;;;;;53.67;24.10;;;;;;;;;;5097676;28;20208;-65
2020/12/10 01:15:36;;;;;;;49.80;24.48;;;;;;;;;;5098302;28;20574;-66
2020/12/10 01:18:03;;;;;;;54.50;26.38;;;;;;;;;;5099440;28;20553;-66
2020/12/10 01:20:30;;;;;;;54.97;24.92;;;;;;;;;;5098725;28;20207;-65
2020/12/10 01:22:57;;;;;;;52.72;25.02;;;;;;;;;;5097614;28;20668;-65
2020/12/10 01:25:26;;;;;;;54.40;26.05;;;;;;;;;;5097009;28;20201;-66
2020/12/10 01:27:55;;;;;;;51.65;23.75;;;;;;;;;;5097782;28;20208;-65
2020/12/10 01:30:22;;;;;;;43.53;22.58;;;;;;;;;;5097725;28;20251;-66
2020/12/10 01:32:48;;;;;;;46.25;22.95;;;;;;;;;;5097686;28;20197;-66
2020/12/10 01:35:15;;;;;;;53.42;27.85;;;;;;;;;;5097088;28;20204;-65
2020/12/10 01:37:42;;;;;;;43.95;23.80;;;;;;;;;;5097602;28;20768;-65
2020/12/10 01:40:09;;;;;;;55.42;25.25;;;;;;;;;;5097956;28;20241;-65
2020/12/10 01:42:36;;;;;;;47.53;21.95;;;;;;;;;;5098291;28;20224;-66
2020/12/10 01:45:04;;;;;;;45.00;23.38;;;;;;;;;;5099164;28;20206;-65
2020/12/10 01:47:32;;;;;;;51.00;23.48;;;;;;;;;;5102684;28;20200;-66
2020/12/10 01:49:59;;;;;;;53.33;25.27;;;;;;;;;;5103933;28;20273;-65
2020/12/10 01:52:26;;;;;;;46.97;23.38;;;;;;;;;;5103494;28;20224;-66
2020/12/10 01:54:53;;;;;;;45.70;22.92;;;;;;;;;;5101060;28;20222;-66
2020/12/10 01:57:19;;;;;;;51.08;25.08;;;;;;;;;;5100501;28;20204;-66
2020/12/10 01:59:47;;;;;;;57.47;26.08;;;;;;;;;;5096953;28;20196;-65
2020/12/10 02:02:15;;;;;;;53.40;24.95;;;;;;;;;;5096124;28;20708;-67
2020/12/10 02:04:43;;;;;;;47.55;22.77;;;;;;;;;;5096089;28;20288;-66
2020/12/10 02:07:10;;;;;;;44.65;22.50;;;;;;;;;;5095944;28;20208;-65
2020/12/10 02:09:37;;;;;;;48.75;23.70;;;;;;;;;;5095619;28;20220;-67
2020/12/10 02:12:03;;;;;;;47.97;22.85;;;;;;;;;;5096044;28;20225;-65
2020/12/10 02:14:34;;;;;;;46.28;23.02;;;;;;;;;;5096009;28;20250;-67
2020/12/10 02:17:01;;;;;;;43.22;22.10;;;;;;;;;;5095995;28;20242;-66
2020/12/10 02:19:29;;;;;;;43.30;21.20;;;;;;;;;;5096846;28;20204;-66
2020/12/10 02:21:56;;;;;;;43.70;23.33;;;;;;;;;;5096422;28;20220;-65
2020/12/10 02:24:24;;;;;;;40.15;22.02;;;;;;;;;;5095768;28;20200;-66
2020/12/10 02:26:50;;;;;;;45.33;22.30;;;;;;;;;;5096247;28;20215;-65
2020/12/10 02:29:18;;;;;;;48.20;22.05;;;;;;;;;;5096767;28;20228;-67
2020/12/10 02:31:45;;;;;;;38.80;21.65;;;;;;;;;;5095593;28;20273;-67
2020/12/10 02:34:12;;;;;;;41.38;22.00;;;;;;;;;;5096153;28;20200;-66
2020/12/10 02:36:42;;;;;;;39.70;21.80;;;;;;;;;;5096139;28;20200;-66
2020/12/10 02:39:09;;;;;;;40.60;21.63;;;;;;;;;;5096102;28;20196;-67
2020/12/10 02:41:37;;;;;;;41.30;23.30;;;;;;;;;;5096191;28;20216;-67
2020/12/10 02:44:07;;;;;;;44.28;21.48;;;;;;;;;;5095880;28;20200;-66
2020/12/10 02:46:34;;;;;;;42.58;22.90;;;;;;;;;;5094469;28;20246;-67
2020/12/10 02:49:01;;;;;;;49.90;22.67;;;;;;;;;;5096115;28;20238;-67
2020/12/10 02:51:27;;;;;;;43.03;22.15;;;;;;;;;;5096860;28;20273;-67
2020/12/10 02:53:54;;;;;;;47.15;22.85;;;;;;;;;;5096924;28;20229;-66
2020/12/10 02:56:21;;;;;;;49.45;23.02;;;;;;;;;;5096590;28;20242;-66
2020/12/10 02:58:51;;;;;;;48.78;23.02;;;;;;;;;;5095779;28;20196;-68
2020/12/10 03:01:17;;;;;;;45.92;23.50;;;;;;;;;;5095969;28;20228;-67
2020/12/10 03:03:47;;;;;;;45.72;22.67;;;;;;;;;;5095336;28;20211;-66
2020/12/10 03:06:14;;;;;;;48.83;23.63;;;;;;;;;;5094952;28;20205;-67
2020/12/10 03:08:41;;;;;;;50.33;23.95;;;;;;;;;;5095882;28;20634;-67
2020/12/10 03:11:08;;;;;;;50.20;24.05;;;;;;;;;;5096168;28;20266;-68
2020/12/10 03:13:35;;;;;;;48.15;21.92;;;;;;;;;;5094603;28;20277;-67
2020/12/10 03:16:03;;;;;;;50.47;24.63;;;;;;;;;;5094468;28;20208;-67
2020/12/10 03:18:30;;;;;;;55.22;25.95;;;;;;;;;;5095368;28;20192;-68
2020/12/10 03:20:56;;;;;;;44.58;24.00;;;;;;;;;;5094452;28;20232;-67
2020/12/10 03:23:23;;;;;;;56.78;24.38;;;;;;;;;;5094518;28;20253;-68
2020/12/10 03:25:50;;;;;;;53.85;26.38;;;;;;;;;;5094814;28;20254;-67
2020/12/10 03:28:17;;;;;;;59.35;26.80;;;;;;;;;;5095258;28;20200;-66
2020/12/10 03:30:43;;;;;;;48.88;25.90;;;;;;;;;;5094989;28;20228;-67
2020/12/10 03:33:11;;;;;;;49.30;24.95;;;;;;;;;;5094647;28;20259;-68
2020/12/10 03:35:38;;;;;;;57.42;24.98;;;;;;;;;;5094149;28;20668;-68
2020/12/10 03:38:05;;;;;;;52.40;25.45;;;;;;;;;;5094510;28;20196;-66
2020/12/10 03:40:31;;;;;;;55.00;25.30;;;;;;;;;;5095355;28;20204;-66
2020/12/10 03:42:58;;;;;;;54.08;24.20;;;;;;;;;;5094886;28;20261;-67
2020/12/10 03:45:25;;;;;;;46.90;25.15;;;;;;;;;;5098536;28;20205;-67
2020/12/10 03:47:51;;;;;;;52.58;24.65;;;;;;;;;;5097842;28;20262;-67
2020/12/10 03:50:19;;;;;;;54.00;25.60;;;;;;;;;;5096228;28;20228;-68
2020/12/10 03:52:46;;;;;;;50.95;28.35;;;;;;;;;;5097995;28;20245;-67
2020/12/10 03:55:13;;;;;;;47.42;22.95;;;;;;;;;;5096066;28;20200;-66
2020/12/10 03:57:39;;;;;;;54.63;26.33;;;;;;;;;;5095180;28;20211;-67
2020/12/10 04:00:06;;;;;;;50.67;25.20;;;;;;;;;;5094586;28;20659;-66
2020/12/10 04:02:33;;;;;;;46.30;24.00;;;;;;;;;;5093601;28;20289;-66
2020/12/10 04:07:26;;;;;;;53.75;24.20;;;;;;;;;;5111846;27;20922;-67
2020/12/10 04:09:53;;;;;;;48.67;24.67;;;;;;;;;;5111449;28;20247;-67
2020/12/10 04:12:20;;;;;;;47.38;22.65;;;;;;;;;;5111212;28;20219;-67
2020/12/10 04:14:46;;;;;;;45.60;24.98;;;;;;;;;;5111482;28;20203;-67
2020/12/10 04:17:13;;;;;;;53.33;23.95;;;;;;;;;;5111558;28;20195;-67
2020/12/10 04:19:40;;;;;;;46.67;24.33;;;;;;;;;;5111422;28;20203;-66
2020/12/10 04:22:07;;;;;;;51.38;27.15;;;;;;;;;;5112647;28;20637;-66
2020/12/10 04:24:34;;;;;;;54.33;25.58;;;;;;;;;;5111229;28;20200;-65
2020/12/10 04:27:01;;;;;;;56.92;27.13;;;;;;;;;;5114144;28;20219;-66
2020/12/10 04:29:28;;;;;;;50.67;25.20;;;;;;;;;;5116299;28;20647;-67
2020/12/10 04:31:54;;;;;;;47.95;24.60;;;;;;;;;;5121480;28;20256;-67
2020/12/10 04:34:21;;;;;;;45.88;24.45;;;;;;;;;;5120861;28;20199;-67
2020/12/10 04:36:48;;;;;;;50.13;24.10;;;;;;;;;;5117362;28;20204;-67
2020/12/10 04:39:15;;;;;;;46.85;25.75;;;;;;;;;;5116948;28;20195;-67
2020/12/10 04:41:45;;;;;;;47.15;25.45;;;;;;;;;;5112983;28;20289;-66
2020/12/10 04:44:11;;;;;;;51.08;26.88;;;;;;;;;;5113618;28;20243;-66
2020/12/10 04:46:39;;;;;;;45.72;24.00;;;;;;;;;;5113558;28;20238;-67
2020/12/10 04:49:06;;;;;;;47.53;25.33;;;;;;;;;;5112884;28;20200;-66
2020/12/10 04:51:33;;;;;;;51.63;25.17;;;;;;;;;;5111745;28;20250;-66
2020/12/10 04:54:01;;;;;;;60.55;28.55;;;;;;;;;;5111127;28;20257;-66
2020/12/10 04:56:27;;;;;;;58.33;28.80;;;;;;;;;;5112059;28;20196;-66
2020/12/10 04:58:55;;;;;;;55.47;26.70;;;;;;;;;;5118273;28;20195;-68
2020/12/10 05:01:22;;;;;;;50.15;26.85;;;;;;;;;;5117658;28;20695;-67
2020/12/10 05:03:49;;;;;;;52.10;25.67;;;;;;;;;;5116879;28;20261;-65
2020/12/10 05:06:17;;;;;;;53.47;27.27;;;;;;;;;;5111414;28;20264;-65
2020/12/10 05:08:45;;;;;;;57.97;25.88;;;;;;;;;;5110814;28;20205;-64
2020/12/10 05:11:11;;;;;;;47.85;26.10;;;;;;;;;;5110550;28;20216;-66
2020/12/10 05:13:38;;;;;;;57.83;25.70;;;;;;;;;;5110294;28;20326;-65
2020/12/10 05:16:20;;;;;;;61.50;28.90;;;;;;;;;;5110369;28;20196;-64
2020/12/10 05:18:47;;;;;;;61.03;28.15;;;;;;;;;;5097065;28;20200;-65
2020/12/10 05:21:16;;;;;;;58.15;29.83;;;;;;;;;;5097234;28;20220;-64
2020/12/10 05:23:42;;;;;;;56.60;27.33;;;;;;;;;;5099691;28;20287;-66
2020/12/10 05:26:10;;;;;;;73.13;29.75;;;;;;;;;;5097850;28;20231;-65
2020/12/10 05:28:40;;;;;;;62.55;31.40;;;;;;;;;;5097263;28;20201;-66
2020/12/10 05:31:09;;;;;;;66.90;30.30;;;;;;;;;;5096788;28;20220;-66
2020/12/10 05:33:36;;;;;;;70.47;31.33;;;;;;;;;;5096142;28;20246;-65
2020/12/10 05:36:06;;;;;;;63.92;29.70;;;;;;;;;;5096445;28;20200;-65
2020/12/10 05:38:33;;;;;;;70.78;30.13;;;;;;;;;;5096369;28;20659;-65
2020/12/10 05:41:24;;;;;;;64.80;32.00;;;;;;;;;;5096382;28;20220;-65
2020/12/10 05:43:51;;;;;;;74.88;29.48;;;;;;;;;;5081422;28;20254;-65
2020/12/10 05:46:19;;;;;;;95.18;34.10;;;;;;;;;;5096192;28;20688;-65
2020/12/10 05:48:46;;;;;;;90.43;34.35;;;;;;;;;;5097412;28;20269;-66
2020/12/10 05:51:16;;;;;;;85.45;32.53;;;;;;;;;;5096475;28;20250;-66
2020/12/10 05:53:43;;;;;;;89.85;31.50;;;;;;;;;;5096505;28;20214;-65
2020/12/10 05:56:11;;;;;;;96.82;34.72;;;;;;;;;;5096187;28;20200;-65
2020/12/10 05:58:45;;;;;;;109.90;33.55;;;;;;;;;;5097004;28;20656;-65
2020/12/10 06:01:15;;;;;;;99.57;32.38;;;;;;;;;;5096557;28;20223;-64
2020/12/10 06:03:47;;;;;;;94.85;32.00;;;;;;;;;;5096801;28;20245;-65
2020/12/10 06:06:16;;;;;;;104.20;33.75;;;;;;;;;;5095676;28;20228;-65
2020/12/10 06:08:43;;;;;;;114.88;33.30;;;;;;;;;;5095533;28;20253;-66
2020/12/10 06:11:17;;;;;;;105.03;35.38;;;;;;;;;;5095858;28;20284;-65
2020/12/10 06:13:44;;;;;;;102.72;33.05;;;;;;;;;;5096406;28;20184;-66
2020/12/10 06:16:15;;;;;;;87.07;33.67;;;;;;;;;;5096570;28;20196;-66
2020/12/10 06:19:00;;;;;;;119.28;33.15;;;;;;;;;;5096462;28;20204;-65
2020/12/10 06:21:34;;;;;;;100.25;32.72;;;;;;;;;;5097035;28;20319;-66
2020/12/10 06:24:01;;;;;;;90.00;32.22;;;;;;;;;;5096446;28;20212;-66
2020/12/10 06:26:35;;;;;;;77.13;30.88;;;;;;;;;;5096443;28;20236;-67
2020/12/10 06:29:21;;;;;;;100.78;33.53;;;;;;;;;;5095264;28;20214;-64
2020/12/10 06:32:08;;;;;;;89.43;33.30;;;;;;;;;;5096624;28;20242;-66
2020/12/10 06:34:36;;;;;;;89.40;31.83;;;;;;;;;;5095666;28;20239;-66
2020/12/10 06:37:20;;;;;;;82.70;32.25;;;;;;;;;;5095077;28;20542;-66
2020/12/10 06:39:47;;;;;;;84.72;34.03;;;;;;;;;;5094766;28;20973;-65
2020/12/10 06:42:14;;;;;;;74.40;31.75;;;;;;;;;;5094878;28;20227;-67
2020/12/10 06:44:41;;;;;;;71.07;28.15;;;;;;;;;;5094442;28;20642;-65
2020/12/10 06:47:08;;;;;;;64.18;30.27;;;;;;;;;;5094802;28;20223;-66
2020/12/10 06:49:37;;;;;;;62.47;30.00;;;;;;;;;;5095247;28;20199;-68
2020/12/10 06:52:12;;;;;;;62.85;28.17;;;;;;;;;;5095711;28;20273;-65
2020/12/10 06:54:57;;;;;;;62.65;28.95;;;;;;;;;;5095301;28;20679;-66
2020/12/10 06:57:24;;;;;;;65.88;29.88;;;;;;;;;;5095063;28;20249;-64
2020/12/10 06:59:52;;;;;;;56.80;29.00;;;;;;;;;;5095272;28;20257;-66
2020/12/10 07:02:21;;;;;;;60.72;27.90;;;;;;;;;;5094618;28;20241;-66
2020/12/10 07:04:49;;;;;;;54.92;26.23;;;;;;;;;;5095389;28;20222;-63
2020/12/10 07:07:18;;;;;;;53.40;28.13;;;;;;;;;;5095372;28;20260;-64
2020/12/10 07:09:52;;;;;;;53.20;26.77;;;;;;;;;;5094663;28;20197;-64
2020/12/10 07:12:19;;;;;;;54.30;26.15;;;;;;;;;;5094620;28;20230;-66
2020/12/10 07:14:46;;;;;;;50.90;27.17;;;;;;;;;;5094547;28;20304;-66
2020/12/10 07:17:13;;;;;;;51.17;25.38;;;;;;;;;;5094435;28;20200;-66
2020/12/10 07:19:40;;;;;;;51.72;26.63;;;;;;;;;;5094454;28;20211;-68
2020/12/10 07:22:08;;;;;;;43.88;25.35;;;;;;;;;;5094453;28;20220;-66
2020/12/10 07:24:34;;;;;;;54.72;27.63;;;;;;;;;;5094413;28;20207;-67
2020/12/10 07:27:01;;;;;;;49.90;26.50;;;;;;;;;;5094028;28;20217;-66
2020/12/10 07:29:28;;;;;;;47.60;23.88;;;;;;;;;;5093912;28;20200;-66
2020/12/10 07:31:55;;;;;;;54.05;25.95;;;;;;;;;;5093911;28;20224;-66
2020/12/10 07:34:21;;;;;;;53.55;26.95;;;;;;;;;;5094367;28;20203;-66
2020/12/10 07:36:49;;;;;;;58.08;27.48;;;;;;;;;;5095148;28;20204;-66
2020/12/10 07:39:27;;;;;;;52.33;29.30;;;;;;;;;;5095451;28;20208;-66
2020/12/10 07:41:54;;;;;;;48.67;25.90;;;;;;;;;;5094911;28;20307;-65
2020/12/10 07:44:28;;;;;;;48.97;26.10;;;;;;;;;;5094711;28;20196;-65
2020/12/10 07:46:55;;;;;;;54.45;28.15;;;;;;;;;;5095148;28;20223;-66
2020/12/10 07:49:25;;;;;;;55.22;26.20;;;;;;;;;;5095107;28;20561;-66
2020/12/10 07:52:00;;;;;;;45.60;25.20;;;;;;;;;;5094460;28;20229;-65
2020/12/10 07:54:29;;;;;;;47.08;24.25;;;;;;;;;;5093891;28;20188;-66
2020/12/10 07:56:57;;;;;;;48.10;25.38;;;;;;;;;;5095106;28;20200;-68
2020/12/10 07:59:25;;;;;;;54.22;27.83;;;;;;;;;;5094565;28;20200;-64
2020/12/10 08:01:54;;;;;;;58.70;29.00;;;;;;;;;;5094506;28;20637;-65
2020/12/10 08:04:21;;;;;;;49.35;25.95;;;;;;;;;;5094192;28;20204;-66
2020/12/10 08:06:49;;;;;;;44.40;24.65;;;;;;;;;;5094335;28;20220;-65
2020/12/10 08:09:17;;;;;;;46.10;25.88;;;;;;;;;;5094051;28;20204;-64
2020/12/10 08:11:52;;;;;;;46.30;25.45;;;;;;;;;;5095311;28;20221;-65
2020/12/10 08:14:26;;;;;;;43.15;26.50;;;;;;;;;;5094537;28;20815;-66
2020/12/10 08:16:53;;;;;;;48.63;24.88;;;;;;;;;;5095270;28;20261;-67
2020/12/10 08:19:20;;;;;;;46.35;24.63;;;;;;;;;;5095316;28;20204;-66
2020/12/10 08:21:47;;;;;;;50.42;26.80;;;;;;;;;;5096162;28;20220;-66
2020/12/10 08:24:14;;;;;;;49.05;24.83;;;;;;;;;;5097490;28;20226;-68
2020/12/10 08:26:41;;;;;;;46.42;23.90;;;;;;;;;;5100832;28;20232;-67
2020/12/10 08:29:14;;;;;;;45.55;25.48;;;;;;;;;;5107101;28;20215;-67
2020/12/10 08:31:41;;;;;;;54.08;26.50;;;;;;;;;;5104400;28;20220;-67
2020/12/10 08:34:16;;;;;;;46.65;24.90;;;;;;;;;;5099682;28;20212;-66
2020/12/10 08:36:43;;;;;;;53.63;25.75;;;;;;;;;;5094322;28;20605;-67
2020/12/10 08:39:10;;;;;;;44.60;25.25;;;;;;;;;;5093289;28;20208;-67
2020/12/10 08:41:37;;;;;;;52.78;26.27;;;;;;;;;;5094247;28;20220;-67
2020/12/10 08:44:05;;;;;;;49.50;24.88;;;;;;;;;;5094522;28;20296;-67
2020/12/10 08:46:33;;;;;;;54.67;26.30;;;;;;;;;;5094800;28;20220;-66
2020/12/10 08:49:15;;;;;;;48.28;25.67;;;;;;;;;;5094658;28;20204;-66
2020/12/10 08:51:42;;;;;;;55.10;28.23;;;;;;;;;;5093953;28;20224;-67
2020/12/10 08:54:09;;;;;;;51.45;26.13;;;;;;;;;;5097597;28;20254;-65
2020/12/10 08:56:38;;;;;;;48.78;26.08;;;;;;;;;;5098224;28;20226;-66
2020/12/10 08:59:05;;;;;;;51.92;26.70;;;;;;;;;;5097561;28;20211;-66
2020/12/10 09:01:33;;;;;;;54.22;26.85;;;;;;;;;;5097394;28;20224;-66
2020/12/10 09:03:59;;;;;;;59.40;29.55;;;;;;;;;;5097009;28;20234;-66
2020/12/10 09:06:33;;;;;;;59.75;27.25;;;;;;;;;;5096619;28;20266;-66
2020/12/10 09:09:00;;;;;;;61.88;30.92;;;;;;;;;;5096634;28;20283;-67
2020/12/10 09:11:26;;;;;;;57.80;28.90;;;;;;;;;;5096881;28;20220;-67
2020/12/10 09:13:53;;;;;;;60.30;29.30;;;;;;;;;;5096650;28;20200;-67
2020/12/10 09:16:20;;;;;;;64.40;29.05;;;;;;;;;;5097076;28;20200;-67
2020/12/10 09:18:47;;;;;;;71.93;32.70;;;;;;;;;;5097006;28;20201;-66
2020/12/10 09:21:14;;;;;;;69.65;32.03;;;;;;;;;;5096861;28;20269;-68
2020/12/10 09:23:44;;;;;;;70.43;31.70;;;;;;;;;;5096643;28;20204;-68
2020/12/10 09:26:11;;;;;;;68.55;29.85;;;;;;;;;;5096874;28;20231;-65
2020/12/10 09:28:37;;;;;;;71.15;30.80;;;;;;;;;;5096516;28;20204;-65
2020/12/10 09:31:04;;;;;;;69.10;30.90;;;;;;;;;;5096474;28;20216;-65
2020/12/10 09:33:31;;;;;;;66.97;31.38;;;;;;;;;;5096393;28;20200;-67
2020/12/10 09:35:59;;;;;;;74.47;31.00;;;;;;;;;;5096965;28;20270;-65
2020/12/10 09:38:26;;;;;;;71.57;30.33;;;;;;;;;;5096525;28;20209;-66
2020/12/10 09:40:53;;;;;;;82.03;34.00;;;;;;;;;;5097483;28;20220;-65
2020/12/10 09:43:19;;;;;;;69.72;30.58;;;;;;;;;;5096592;28;20261;-65
2020/12/10 09:45:51;;;;;;;61.15;29.73;;;;;;;;;;5097391;28;20250;-66
2020/12/10 09:48:18;;;;;;;76.40;32.25;;;;;;;;;;5099417;28;20221;-65
2020/12/10 09:50:45;;;;;;;66.80;30.98;;;;;;;;;;5098188;28;20246;-67
2020/12/10 09:53:16;;;;;;;66.45;29.88;;;;;;;;;;5097915;28;20254;-66
2020/12/10 09:56:22;;;;;;;70.15;33.83;;;;;;;;;;5096820;28;20808;-66
2020/12/10 09:58:50;;;;;;;68.25;32.60;;;;;;;;;;5098460;28;20208;-67
2020/12/10 10:01:17;;;;;;;63.47;29.52;;;;;;;;;;5103008;28;20314;-66
2020/12/10 10:03:43;;;;;;;58.75;28.50;;;;;;;;;;5103559;28;20204;-66
2020/12/10 10:06:11;;;;;;;56.05;28.95;;;;;;;;;;5102739;28;20234;-66
2020/12/10 10:08:39;;;;;;;62.42;29.67;;;;;;;;;;5098101;28;20212;-66
2020/12/10 10:11:05;;;;;;;61.28;30.40;;;;;;;;;;5096310;28;20523;-65
2020/12/10 10:13:32;;;;;;;60.83;30.20;;;;;;;;;;5096393;28;20204;-65
2020/12/10 10:16:01;;;;;;;55.08;28.90;;;;;;;;;;5096191;28;20265;-66
2020/12/10 10:18:28;;;;;;;63.83;29.98;;;;;;;;;;5095745;28;20680;-66
2020/12/10 10:20:55;;;;;;;56.83;27.90;;;;;;;;;;5099980;22;20226;-59
2020/12/10 10:23:23;;;;;;;52.28;27.92;;;;;;;;;;5034376;28;20279;-62
2020/12/10 10:25:51;;;;;;;54.47;26.85;;;;;;;;;;5034103;28;20673;-60
2020/12/10 10:28:17;;;;;;;51.38;26.75;;;;;;;;;;5034650;28;20228;-62
2020/12/10 10:30:44;;;;;;;51.42;26.65;;;;;;;;;;5034645;28;20230;-59
2020/12/10 10:33:11;;;;;;;43.50;24.77;;;;;;;;;;5034390;28;20215;-60
2020/12/10 10:35:38;;;;;;;52.85;26.02;;;;;;;;;;5034389;28;20210;-61
2020/12/10 10:38:04;;;;;;;44.45;24.10;;;;;;;;;;5034265;28;20233;-60
2020/12/10 10:40:32;;;;;;;44.95;25.00;;;;;;;;;;5034130;28;20227;-60
2020/12/10 10:42:59;;;;;;;46.30;25.30;;;;;;;;;;5033598;28;20222;-61
2020/12/10 10:45:26;;;;;;;42.78;23.17;;;;;;;;;;5034387;28;20210;-61
2020/12/10 10:47:53;;;;;;;44.38;24.80;;;;;;;;;;5034080;28;20233;-61
2020/12/10 10:50:20;;;;;;;40.08;22.95;;;;;;;;;;5034233;28;20206;-62
2020/12/10 10:52:47;;;;;;;44.67;24.40;;;;;;;;;;5034504;28;20548;-61
2020/12/10 10:55:13;;;;;;;38.10;22.73;;;;;;;;;;5034569;28;20260;-60
2020/12/10 10:57:40;;;;;;;42.83;22.90;;;;;;;;;;5034437;28;20198;-60
2020/12/10 11:00:08;;;;;;;41.25;21.33;;;;;;;;;;5034176;28;20276;-62
2020/12/10 11:02:34;;;;;;;41.22;22.73;;;;;;;;;;5033968;28;20236;-60
2020/12/10 11:05:01;;;;;;;37.60;22.20;;;;;;;;;;5034376;28;20202;-60
2020/12/10 11:07:28;;;;;;;40.50;21.60;;;;;;;;;;5033131;28;20234;-61
2020/12/10 11:09:55;;;;;;;40.03;21.50;;;;;;;;;;5033807;28;20260;-61
2020/12/10 11:12:21;;;;;;;39.75;23.80;;;;;;;;;;5033535;28;20222;-61
2020/12/10 11:14:48;;;;;;;47.65;24.20;;;;;;;;;;5033254;28;20264;-61
2020/12/10 11:17:16;;;;;;;40.33;24.70;;;;;;;;;;5033205;28;20398;-61
2020/12/10 11:19:44;;;;;;;41.25;22.15;;;;;;;;;;5033829;28;20202;-63
2020/12/10 11:22:11;;;;;;;42.45;24.85;;;;;;;;;;5033704;28;20649;-62
2020/12/10 11:24:38;;;;;;;40.67;22.38;;;;;;;;;;5034082;28;20206;-61
2020/12/10 11:27:05;;;;;;;39.25;22.60;;;;;;;;;;5033787;28;20620;-62
2020/12/10 11:29:32;;;;;;;33.22;20.08;;;;;;;;;;5033955;28;20198;-62
2020/12/10 11:31:58;;;;;;;32.58;20.00;;;;;;;;;;5034431;28;20280;-61
2020/12/10 11:34:26;;;;;;;36.72;19.75;;;;;;;;;;5034366;28;20260;-62
2020/12/10 11:36:53;;;;;;;33.63;20.05;;;;;;;;;;5034474;28;20205;-61
2020/12/10 11:39:20;;;;;;;33.33;19.42;;;;;;;;;;5033607;28;20260;-60
2020/12/10 11:41:46;;;;;;;40.95;21.90;;;;;;;;;;5033537;28;20434;-60
2020/12/10 11:44:13;;;;;;;40.95;21.77;;;;;;;;;;5034204;28;20260;-62
2020/12/10 11:46:40;;;;;;;38.60;20.40;;;;;;;;;;5033989;28;20219;-62
2020/12/10 11:49:07;;;;;;;38.72;20.23;;;;;;;;;;5033543;28;20355;-60
2020/12/10 11:51:35;;;;;;;40.78;20.80;;;;;;;;;;5032795;28;20366;-59
2020/12/10 11:54:02;;;;;;;39.08;20.98;;;;;;;;;;5032907;28;20586;-61
2020/12/10 11:56:29;;;;;;;36.47;19.38;;;;;;;;;;5032466;28;20206;-60
2020/12/10 11:58:55;;;;;;;38.50;21.10;;;;;;;;;;5033145;28;20202;-61
2020/12/10 12:01:22;;;;;;;44.63;23.00;;;;;;;;;;5033392;28;20222;-60
2020/12/10 12:03:49;;;;;;;37.95;23.90;;;;;;;;;;5032884;28;20206;-61
2020/12/10 12:06:16;;;;;;;39.58;19.92;;;;;;;;;;5032706;28;20210;-61
2020/12/10 12:08:44;;;;;;;34.88;19.85;;;;;;;;;;5032407;28;20248;-61
2020/12/10 12:11:10;;;;;;;41.42;20.45;;;;;;;;;;5032280;28;20222;-61
2020/12/10 12:13:37;;;;;;;37.33;21.85;;;;;;;;;;5033053;28;20260;-61
2020/12/10 12:16:04;;;;;;;35.75;20.52;;;;;;;;;;5032499;28;20233;-61
2020/12/10 12:18:31;;;;;;;37.22;21.00;;;;;;;;;;5032440;28;20268;-61
2020/12/10 12:20:57;;;;;;;33.40;20.27;;;;;;;;;;5032067;28;20329;-61
2020/12/10 12:23:24;;;;;;;37.30;20.70;;;;;;;;;;5033535;28;20236;-65
2020/12/10 12:25:52;;;;;;;37.10;19.85;;;;;;;;;;5032908;28;20252;-64
2020/12/10 12:28:18;;;;;;;41.78;19.23;;;;;;;;;;5034787;28;20705;-62
2020/12/10 12:30:45;;;;;;;37.85;19.52;;;;;;;;;;5036113;28;20222;-62
2020/12/10 12:33:12;;;;;;;36.95;19.77;;;;;;;;;;5036546;28;20206;-62
2020/12/10 12:35:39;;;;;;;37.67;19.70;;;;;;;;;;5036446;28;20248;-61
2020/12/10 12:38:06;;;;;;;41.33;20.15;;;;;;;;;;5036471;28;20198;-61
2020/12/10 12:40:33;;;;;;;36.70;19.85;;;;;;;;;;5036426;28;20226;-61
2020/12/10 12:43:01;;;;;;;34.95;19.35;;;;;;;;;;5036135;28;20210;-62
2020/12/10 12:45:28;;;;;;;34.22;19.70;;;;;;;;;;5036664;28;20206;-62
2020/12/10 12:47:56;;;;;;;36.33;21.10;;;;;;;;;;5036507;28;20218;-61
2020/12/10 12:50:23;;;;;;;34.22;19.85;;;;;;;;;;5037077;28;20204;-62
2020/12/10 12:52:49;;;;;;;32.25;18.85;;;;;;;;;;5036112;28;20267;-62
2020/12/10 12:55:16;;;;;;;37.88;19.73;;;;;;;;;;5035990;28;20203;-62
2020/12/10 12:57:43;;;;;;;40.42;21.38;;;;;;;;;;5035747;28;20602;-63
2020/12/10 13:00:11;;;;;;;33.38;20.80;;;;;;;;;;5036415;28;20210;-62
2020/12/10 13:02:38;;;;;;;41.50;22.08;;;;;;;;;;5036125;28;20202;-60
2020/12/10 13:05:06;;;;;;;37.97;22.10;;;;;;;;;;5036344;28;20206;-62
2020/12/10 13:07:32;;;;;;;41.15;23.65;;;;;;;;;;5036070;28;20554;-61
2020/12/10 13:09:59;;;;;;;40.78;22.80;;;;;;;;;;5036368;28;20249;-61
2020/12/10 13:12:26;;;;;;;41.95;25.58;;;;;;;;;;5035384;28;20434;-60
2020/12/10 13:14:53;;;;;;;45.50;24.48;;;;;;;;;;5035805;28;20275;-60
2020/12/10 13:17:21;;;;;;;41.22;24.00;;;;;;;;;;5035347;28;20260;-61
2020/12/10 13:19:50;;;;;;;48.50;24.63;;;;;;;;;;5035673;28;20621;-62
2020/12/10 13:22:18;;;;;;;44.92;24.42;;;;;;;;;;5035761;28;20261;-61
2020/12/10 13:24:44;;;;;;;42.53;25.15;;;;;;;;;;5035594;28;20209;-61
2020/12/10 13:27:11;;;;;;;50.55;26.50;;;;;;;;;;5038580;28;20223;-62
2020/12/10 13:29:38;;;;;;;44.03;24.55;;;;;;;;;;5036802;28;20210;-62
2020/12/10 13:32:08;;;;;;;47.50;26.70;;;;;;;;;;5035917;28;20231;-62
2020/12/10 13:34:36;;;;;;;42.60;24.55;;;;;;;;;;5035181;28;20218;-60
2020/12/10 13:37:03;;;;;;;40.80;25.30;;;;;;;;;;5035311;28;20207;-62
2020/12/10 13:39:30;;;;;;;42.05;24.60;;;;;;;;;;5035164;28;20210;-62
2020/12/10 13:41:57;;;;;;;44.50;23.83;;;;;;;;;;5036172;28;20226;-61
2020/12/10 13:44:26;;;;;;;42.85;24.35;;;;;;;;;;5035473;28;20238;-61
2020/12/10 13:46:53;;;;;;;36.55;22.02;;;;;;;;;;5034772;28;20229;-61
2020/12/10 13:49:20;;;;;;;42.35;25.42;;;;;;;;;;5035743;28;20635;-62
2020/12/10 13:51:50;;;;;;;48.33;24.85;;;;;;;;;;5035119;28;20222;-61
2020/12/10 13:54:17;;;;;;;40.80;24.13;;;;;;;;;;5034806;28;20293;-63
2020/12/10 13:56:44;;;;;;;37.72;23.13;;;;;;;;;;5034877;28;20689;-61
2020/12/10 13:59:11;;;;;;;37.20;23.05;;;;;;;;;;5035227;28;20259;-62
2020/12/10 14:01:38;;;;;;;41.97;22.92;;;;;;;;;;5035379;28;20233;-62
2020/12/10 14:04:04;;;;;;;41.63;22.23;;;;;;;;;;5035409;28;20617;-62
2020/12/10 14:06:31;;;;;;;42.25;24.88;;;;;;;;;;5033904;28;20925;-58
2020/12/10 14:09:00;;;;;;;40.90;23.10;;;;;;;;;;5034883;28;20198;-63
2020/12/10 14:11:27;;;;;;;39.92;22.45;;;;;;;;;;5034192;28;20666;-62
2020/12/10 14:13:54;;;;;;;42.13;24.15;;;;;;;;;;5034584;28;20217;-60
2020/12/10 14:16:21;;;;;;;40.33;22.55;;;;;;;;;;5034193;28;20202;-62
2020/12/10 14:18:48;;;;;;;41.15;23.25;;;;;;;;;;5033921;28;20206;-62
2020/12/10 14:21:19;;;;;;;37.45;23.50;;;;;;;;;;5033892;28;20237;-61
2020/12/10 14:23:46;;;;;;;33.85;20.25;;;;;;;;;;5033766;28;20229;-60